sensor_id;sensor_type;location;lat;lon;timestamp;P1;durP1;ratioP1;P2;durP2;ratioP2
67889;SDS011;54685;52.082;5.426;2023-06-22T00:00:05;9.85;;;6.57;;
67889;SDS011;54685;52.082;5.426;2023-06-22T00:02:40;9.48;;;6.80;;
67889;SDS011;54685;52.082;5.426;2023-06-22T00:05:07;9.48;;;6.85;;
67889;SDS011;54685;52.082;5.426;2023-06-22T00:07:34;7.68;;;6.85;;
67889;SDS011;54685;52.082;5.426;2023-06-22T00:10:03;9.48;;;7.13;;
67889;SDS011;54685;52.082;5.426;2023-06-22T00:12:33;7.82;;;6.63;;
67889;SDS011;54685;52.082;5.426;2023-06-22T00:15:00;9.10;;;6.82;;
67889;SDS011;54685;52.082;5.426;2023-06-22T00:17:30;7.13;;;6.53;;
67889;SDS011;54685;52.082;5.426;2023-06-22T00:19:58;9.73;;;6.22;;
67889;SDS011;54685;52.082;5.426;2023-06-22T00:22:26;8.23;;;6.57;;
67889;SDS011;54685;52.082;5.426;2023-06-22T00:24:56;7.88;;;7.10;;
67889;SDS011;54685;52.082;5.426;2023-06-22T00:27:23;7.95;;;7.15;;
67889;SDS011;54685;52.082;5.426;2023-06-22T00:29:50;12.55;;;7.55;;
67889;SDS011;54685;52.082;5.426;2023-06-22T00:32:17;8.07;;;7.15;;
67889;SDS011;54685;52.082;5.426;2023-06-22T00:34:46;7.78;;;6.95;;
67889;SDS011;54685;52.082;5.426;2023-06-22T00:37:13;8.23;;;6.97;;
67889;SDS011;54685;52.082;5.426;2023-06-22T00:39:41;7.60;;;6.90;;
67889;SDS011;54685;52.082;5.426;2023-06-22T00:42:11;8.07;;;7.22;;
67889;SDS011;54685;52.082;5.426;2023-06-22T00:44:38;7.97;;;7.07;;
67889;SDS011;54685;52.082;5.426;2023-06-22T00:47:05;10.27;;;7.07;;
67889;SDS011;54685;52.082;5.426;2023-06-22T00:49:33;9.02;;;7.53;;
67889;SDS011;54685;52.082;5.426;2023-06-22T00:52:00;8.55;;;7.03;;
67889;SDS011;54685;52.082;5.426;2023-06-22T00:54:27;7.97;;;7.18;;
67889;SDS011;54685;52.082;5.426;2023-06-22T00:56:55;8.18;;;6.78;;
67889;SDS011;54685;52.082;5.426;2023-06-22T00:59:23;9.65;;;7.35;;
67889;SDS011;54685;52.082;5.426;2023-06-22T01:01:52;9.70;;;7.25;;
67889;SDS011;54685;52.082;5.426;2023-06-22T01:04:19;8.50;;;6.80;;
67889;SDS011;54685;52.082;5.426;2023-06-22T01:07:02;8.52;;;7.25;;
67889;SDS011;54685;52.082;5.426;2023-06-22T01:09:45;12.45;;;7.22;;
67889;SDS011;54685;52.082;5.426;2023-06-22T01:12:33;9.88;;;7.30;;
67889;SDS011;54685;52.082;5.426;2023-06-22T01:15:18;10.52;;;6.80;;
67889;SDS011;54685;52.082;5.426;2023-06-22T01:17:56;7.45;;;6.75;;
67889;SDS011;54685;52.082;5.426;2023-06-22T01:20:25;12.02;;;7.10;;
67889;SDS011;54685;52.082;5.426;2023-06-22T01:31:10;9.30;;;6.97;;
67889;SDS011;54685;52.082;5.426;2023-06-22T01:33:40;8.70;;;6.72;;
67889;SDS011;54685;52.082;5.426;2023-06-22T01:36:11;7.78;;;6.57;;
67889;SDS011;54685;52.082;5.426;2023-06-22T01:38:45;9.02;;;6.53;;
67889;SDS011;54685;52.082;5.426;2023-06-22T01:41:13;8.65;;;6.68;;
67889;SDS011;54685;52.082;5.426;2023-06-22T01:43:42;9.27;;;6.88;;
67889;SDS011;54685;52.082;5.426;2023-06-22T01:46:10;8.93;;;6.53;;
67889;SDS011;54685;52.082;5.426;2023-06-22T01:48:38;8.32;;;6.35;;
67889;SDS011;54685;52.082;5.426;2023-06-22T01:51:06;8.27;;;5.95;;
67889;SDS011;54685;52.082;5.426;2023-06-22T01:53:33;8.32;;;6.60;;
67889;SDS011;54685;52.082;5.426;2023-06-22T01:56:00;7.65;;;6.55;;
67889;SDS011;54685;52.082;5.426;2023-06-22T01:58:29;7.93;;;6.57;;
67889;SDS011;54685;52.082;5.426;2023-06-22T02:00:58;7.20;;;6.50;;
67889;SDS011;54685;52.082;5.426;2023-06-22T02:03:31;7.97;;;7.10;;
67889;SDS011;54685;52.082;5.426;2023-06-22T02:06:05;7.13;;;6.43;;
67889;SDS011;54685;52.082;5.426;2023-06-22T02:08:42;7.88;;;7.10;;
67889;SDS011;54685;52.082;5.426;2023-06-22T02:11:15;7.70;;;6.90;;
67889;SDS011;54685;52.082;5.426;2023-06-22T02:13:46;12.63;;;8.60;;
67889;SDS011;54685;52.082;5.426;2023-06-22T02:16:14;9.00;;;7.40;;
67889;SDS011;54685;52.082;5.426;2023-06-22T02:18:46;11.00;;;7.95;;
67889;SDS011;54685;52.082;5.426;2023-06-22T02:21:17;9.02;;;7.97;;
67889;SDS011;54685;52.082;5.426;2023-06-22T02:23:47;12.02;;;7.90;;
67889;SDS011;54685;52.082;5.426;2023-06-22T02:26:16;10.73;;;8.55;;
67889;SDS011;54685;52.082;5.426;2023-06-22T02:28:44;9.50;;;8.32;;
67889;SDS011;54685;52.082;5.426;2023-06-22T02:31:16;9.65;;;7.95;;
67889;SDS011;54685;52.082;5.426;2023-06-22T02:33:44;9.93;;;8.27;;
67889;SDS011;54685;52.082;5.426;2023-06-22T02:36:12;10.35;;;8.60;;
67889;SDS011;54685;52.082;5.426;2023-06-22T02:38:42;10.65;;;8.18;;
67889;SDS011;54685;52.082;5.426;2023-06-22T02:41:14;8.65;;;7.75;;
67889;SDS011;54685;52.082;5.426;2023-06-22T02:43:45;8.95;;;7.70;;
67889;SDS011;54685;52.082;5.426;2023-06-22T02:46:13;8.30;;;7.45;;
67889;SDS011;54685;52.082;5.426;2023-06-22T02:48:41;9.25;;;7.60;;
67889;SDS011;54685;52.082;5.426;2023-06-22T02:51:10;10.40;;;8.50;;
67889;SDS011;54685;52.082;5.426;2023-06-22T02:53:37;10.43;;;7.68;;
67889;SDS011;54685;52.082;5.426;2023-06-22T02:56:04;8.75;;;7.20;;
67889;SDS011;54685;52.082;5.426;2023-06-22T02:58:35;7.85;;;7.10;;
67889;SDS011;54685;52.082;5.426;2023-06-22T03:01:08;8.50;;;7.60;;
67889;SDS011;54685;52.082;5.426;2023-06-22T03:03:36;9.93;;;7.28;;
67889;SDS011;54685;52.082;5.426;2023-06-22T03:06:04;8.82;;;6.88;;
67889;SDS011;54685;52.082;5.426;2023-06-22T03:08:31;8.07;;;7.28;;
67889;SDS011;54685;52.082;5.426;2023-06-22T03:10:58;8.43;;;7.22;;
67889;SDS011;54685;52.082;5.426;2023-06-22T03:13:25;8.45;;;7.53;;
67889;SDS011;54685;52.082;5.426;2023-06-22T03:15:51;8.75;;;7.70;;
67889;SDS011;54685;52.082;5.426;2023-06-22T03:18:19;8.27;;;6.80;;
67889;SDS011;54685;52.082;5.426;2023-06-22T03:20:48;7.90;;;7.10;;
67889;SDS011;54685;52.082;5.426;2023-06-22T03:23:15;11.60;;;7.53;;
67889;SDS011;54685;52.082;5.426;2023-06-22T03:25:42;8.68;;;7.05;;
67889;SDS011;54685;52.082;5.426;2023-06-22T03:28:13;8.20;;;7.30;;
67889;SDS011;54685;52.082;5.426;2023-06-22T03:30:42;8.20;;;7.38;;
67889;SDS011;54685;52.082;5.426;2023-06-22T03:33:12;11.05;;;7.13;;
67889;SDS011;54685;52.082;5.426;2023-06-22T03:35:39;7.43;;;6.70;;
67889;SDS011;54685;52.082;5.426;2023-06-22T03:38:05;7.47;;;6.45;;
67889;SDS011;54685;52.082;5.426;2023-06-22T03:40:33;6.95;;;6.20;;
67889;SDS011;54685;52.082;5.426;2023-06-22T03:43:00;11.20;;;7.03;;
67889;SDS011;54685;52.082;5.426;2023-06-22T03:45:28;10.48;;;7.78;;
67889;SDS011;54685;52.082;5.426;2023-06-22T03:47:56;9.90;;;6.80;;
67889;SDS011;54685;52.082;5.426;2023-06-22T03:50:24;9.18;;;7.50;;
67889;SDS011;54685;52.082;5.426;2023-06-22T03:52:51;12.60;;;7.65;;
67889;SDS011;54685;52.082;5.426;2023-06-22T03:55:19;8.48;;;7.38;;
67889;SDS011;54685;52.082;5.426;2023-06-22T03:57:46;8.30;;;7.45;;
67889;SDS011;54685;52.082;5.426;2023-06-22T04:00:14;10.15;;;7.90;;
67889;SDS011;54685;52.082;5.426;2023-06-22T04:02:42;9.30;;;7.65;;
67889;SDS011;54685;52.082;5.426;2023-06-22T04:05:09;9.77;;;7.75;;
67889;SDS011;54685;52.082;5.426;2023-06-22T04:07:36;12.23;;;8.05;;
67889;SDS011;54685;52.082;5.426;2023-06-22T04:10:09;10.13;;;7.82;;
67889;SDS011;54685;52.082;5.426;2023-06-22T04:12:38;9.70;;;8.40;;
67889;SDS011;54685;52.082;5.426;2023-06-22T04:15:08;13.98;;;8.65;;
67889;SDS011;54685;52.082;5.426;2023-06-22T04:17:36;9.35;;;8.20;;
67889;SDS011;54685;52.082;5.426;2023-06-22T04:20:03;9.88;;;7.45;;
67889;SDS011;54685;52.082;5.426;2023-06-22T04:22:30;9.75;;;7.75;;
67889;SDS011;54685;52.082;5.426;2023-06-22T04:24:58;9.43;;;7.78;;
67889;SDS011;54685;52.082;5.426;2023-06-22T04:27:25;9.85;;;8.50;;
67889;SDS011;54685;52.082;5.426;2023-06-22T04:29:52;9.63;;;8.40;;
67889;SDS011;54685;52.082;5.426;2023-06-22T04:32:20;11.90;;;8.95;;
67889;SDS011;54685;52.082;5.426;2023-06-22T04:34:47;9.30;;;8.27;;
67889;SDS011;54685;52.082;5.426;2023-06-22T04:37:37;9.13;;;7.95;;
67889;SDS011;54685;52.082;5.426;2023-06-22T04:40:05;10.70;;;8.50;;
67889;SDS011;54685;52.082;5.426;2023-06-22T04:42:37;10.68;;;8.68;;
67889;SDS011;54685;52.082;5.426;2023-06-22T04:45:05;12.23;;;8.88;;
67889;SDS011;54685;52.082;5.426;2023-06-22T04:47:32;12.23;;;8.70;;
67889;SDS011;54685;52.082;5.426;2023-06-22T04:49:59;11.38;;;8.35;;
67889;SDS011;54685;52.082;5.426;2023-06-22T04:52:29;11.48;;;9.05;;
67889;SDS011;54685;52.082;5.426;2023-06-22T04:54:56;10.70;;;9.13;;
67889;SDS011;54685;52.082;5.426;2023-06-22T04:57:24;10.23;;;8.30;;
67889;SDS011;54685;52.082;5.426;2023-06-22T04:59:58;14.50;;;10.45;;
67889;SDS011;54685;52.082;5.426;2023-06-22T05:02:43;11.90;;;10.05;;
67889;SDS011;54685;52.082;5.426;2023-06-22T05:05:12;14.27;;;10.27;;
67889;SDS011;54685;52.082;5.426;2023-06-22T05:07:41;13.65;;;10.15;;
67889;SDS011;54685;52.082;5.426;2023-06-22T05:10:10;13.18;;;10.52;;
67889;SDS011;54685;52.082;5.426;2023-06-22T05:12:39;16.30;;;10.80;;
67889;SDS011;54685;52.082;5.426;2023-06-22T05:15:08;14.52;;;11.15;;
67889;SDS011;54685;52.082;5.426;2023-06-22T05:17:35;14.73;;;10.80;;
67889;SDS011;54685;52.082;5.426;2023-06-22T05:20:11;15.40;;;12.27;;
67889;SDS011;54685;52.082;5.426;2023-06-22T05:22:39;15.30;;;11.35;;
67889;SDS011;54685;52.082;5.426;2023-06-22T05:25:13;13.57;;;11.50;;
67889;SDS011;54685;52.082;5.426;2023-06-22T05:27:40;15.05;;;12.38;;
67889;SDS011;54685;52.082;5.426;2023-06-22T05:30:07;21.00;;;13.25;;
67889;SDS011;54685;52.082;5.426;2023-06-22T05:32:35;16.85;;;13.10;;
67889;SDS011;54685;52.082;5.426;2023-06-22T05:35:03;21.35;;;13.70;;
67889;SDS011;54685;52.082;5.426;2023-06-22T05:37:30;18.27;;;14.23;;
67889;SDS011;54685;52.082;5.426;2023-06-22T05:39:57;26.33;;;14.35;;
67889;SDS011;54685;52.082;5.426;2023-06-22T05:42:24;21.77;;;15.57;;
67889;SDS011;54685;52.082;5.426;2023-06-22T05:44:52;22.42;;;16.35;;
67889;SDS011;54685;52.082;5.426;2023-06-22T05:47:19;20.55;;;16.08;;
67889;SDS011;54685;52.082;5.426;2023-06-22T05:49:47;21.33;;;16.05;;
67889;SDS011;54685;52.082;5.426;2023-06-22T05:52:15;19.42;;;17.27;;
67889;SDS011;54685;52.082;5.426;2023-06-22T05:54:46;23.25;;;18.65;;
67889;SDS011;54685;52.082;5.426;2023-06-22T05:57:22;27.17;;;19.55;;
67889;SDS011;54685;52.082;5.426;2023-06-22T05:59:53;23.48;;;17.38;;
67889;SDS011;54685;52.082;5.426;2023-06-22T06:02:23;26.48;;;20.60;;
67889;SDS011;54685;52.082;5.426;2023-06-22T06:04:57;25.73;;;19.92;;
67889;SDS011;54685;52.082;5.426;2023-06-22T06:07:24;21.35;;;18.95;;
67889;SDS011;54685;52.082;5.426;2023-06-22T06:09:53;23.55;;;19.42;;
67889;SDS011;54685;52.082;5.426;2023-06-22T06:12:20;26.45;;;20.38;;
67889;SDS011;54685;52.082;5.426;2023-06-22T06:14:47;31.98;;;21.17;;
67889;SDS011;54685;52.082;5.426;2023-06-22T06:17:14;29.38;;;23.10;;
67889;SDS011;54685;52.082;5.426;2023-06-22T06:19:41;28.60;;;20.77;;
67889;SDS011;54685;52.082;5.426;2023-06-22T06:22:08;27.10;;;21.05;;
67889;SDS011;54685;52.082;5.426;2023-06-22T06:24:35;24.50;;;20.80;;
67889;SDS011;54685;52.082;5.426;2023-06-22T06:27:02;24.85;;;20.40;;
67889;SDS011;54685;52.082;5.426;2023-06-22T06:29:34;25.35;;;21.02;;
67889;SDS011;54685;52.082;5.426;2023-06-22T06:32:01;22.67;;;19.45;;
67889;SDS011;54685;52.082;5.426;2023-06-22T06:34:28;23.15;;;19.73;;
67889;SDS011;54685;52.082;5.426;2023-06-22T06:36:55;29.38;;;21.45;;
67889;SDS011;54685;52.082;5.426;2023-06-22T06:39:22;28.25;;;19.73;;
67889;SDS011;54685;52.082;5.426;2023-06-22T06:41:49;33.67;;;21.10;;
67889;SDS011;54685;52.082;5.426;2023-06-22T06:44:18;25.60;;;20.85;;
67889;SDS011;54685;52.082;5.426;2023-06-22T06:46:45;24.08;;;20.33;;
67889;SDS011;54685;52.082;5.426;2023-06-22T06:49:12;25.50;;;21.15;;
67889;SDS011;54685;52.082;5.426;2023-06-22T06:51:39;24.75;;;20.35;;
67889;SDS011;54685;52.082;5.426;2023-06-22T06:54:06;26.73;;;20.10;;
67889;SDS011;54685;52.082;5.426;2023-06-22T06:56:33;28.25;;;21.85;;
67889;SDS011;54685;52.082;5.426;2023-06-22T06:59:00;28.80;;;20.98;;
67889;SDS011;54685;52.082;5.426;2023-06-22T07:01:27;28.75;;;19.67;;
67889;SDS011;54685;52.082;5.426;2023-06-22T07:04:00;27.90;;;19.40;;
67889;SDS011;54685;52.082;5.426;2023-06-22T07:06:27;26.13;;;20.30;;
67889;SDS011;54685;52.082;5.426;2023-06-22T07:08:58;22.95;;;18.85;;
67889;SDS011;54685;52.082;5.426;2023-06-22T07:11:25;21.30;;;17.55;;
67889;SDS011;54685;52.082;5.426;2023-06-22T07:13:52;20.30;;;16.27;;
67889;SDS011;54685;52.082;5.426;2023-06-22T07:16:19;20.67;;;16.05;;
67889;SDS011;54685;52.082;5.426;2023-06-22T07:18:49;26.40;;;16.77;;
67889;SDS011;54685;52.082;5.426;2023-06-22T07:21:16;20.77;;;16.40;;
67889;SDS011;54685;52.082;5.426;2023-06-22T07:23:43;17.90;;;15.50;;
67889;SDS011;54685;52.082;5.426;2023-06-22T07:26:10;20.67;;;15.55;;
67889;SDS011;54685;52.082;5.426;2023-06-22T07:28:38;18.45;;;16.00;;
67889;SDS011;54685;52.082;5.426;2023-06-22T07:31:07;18.40;;;15.43;;
67889;SDS011;54685;52.082;5.426;2023-06-22T07:33:34;17.08;;;15.13;;
67889;SDS011;54685;52.082;5.426;2023-06-22T07:36:01;20.60;;;17.83;;
67889;SDS011;54685;52.082;5.426;2023-06-22T07:38:30;19.02;;;16.15;;
67889;SDS011;54685;52.082;5.426;2023-06-22T07:40:57;25.60;;;16.23;;
67889;SDS011;54685;52.082;5.426;2023-06-22T07:43:23;20.05;;;15.85;;
67889;SDS011;54685;52.082;5.426;2023-06-22T07:45:50;19.60;;;14.90;;
67889;SDS011;54685;52.082;5.426;2023-06-22T07:48:21;19.05;;;15.07;;
67889;SDS011;54685;52.082;5.426;2023-06-22T07:50:48;17.48;;;15.13;;
67889;SDS011;54685;52.082;5.426;2023-06-22T07:53:25;19.27;;;15.57;;
67889;SDS011;54685;52.082;5.426;2023-06-22T07:55:52;19.80;;;15.60;;
67889;SDS011;54685;52.082;5.426;2023-06-22T07:58:22;17.40;;;14.48;;
67889;SDS011;54685;52.082;5.426;2023-06-22T08:00:49;20.45;;;14.10;;
67889;SDS011;54685;52.082;5.426;2023-06-22T08:03:16;17.70;;;13.23;;
67889;SDS011;54685;52.082;5.426;2023-06-22T08:05:43;20.27;;;14.75;;
67889;SDS011;54685;52.082;5.426;2023-06-22T08:08:10;16.95;;;12.77;;
67889;SDS011;54685;52.082;5.426;2023-06-22T08:10:39;22.92;;;13.05;;
67889;SDS011;54685;52.082;5.426;2023-06-22T08:13:07;17.35;;;13.20;;
67889;SDS011;54685;52.082;5.426;2023-06-22T08:15:36;13.35;;;11.95;;
67889;SDS011;54685;52.082;5.426;2023-06-22T08:18:03;17.42;;;11.70;;
67889;SDS011;54685;52.082;5.426;2023-06-22T08:20:32;18.98;;;12.18;;
67889;SDS011;54685;52.082;5.426;2023-06-22T08:22:59;15.15;;;11.63;;
67889;SDS011;54685;52.082;5.426;2023-06-22T08:25:32;12.20;;;10.60;;
67889;SDS011;54685;52.082;5.426;2023-06-22T08:28:01;12.82;;;10.80;;
67889;SDS011;54685;52.082;5.426;2023-06-22T08:30:28;14.00;;;11.23;;
67889;SDS011;54685;52.082;5.426;2023-06-22T08:32:55;13.00;;;10.40;;
67889;SDS011;54685;52.082;5.426;2023-06-22T08:35:22;15.13;;;10.20;;
67889;SDS011;54685;52.082;5.426;2023-06-22T08:37:50;13.40;;;10.20;;
67889;SDS011;54685;52.082;5.426;2023-06-22T08:40:18;17.00;;;9.00;;
67889;SDS011;54685;52.082;5.426;2023-06-22T08:42:47;14.15;;;8.18;;
67889;SDS011;54685;52.082;5.426;2023-06-22T08:45:14;9.88;;;8.95;;
67889;SDS011;54685;52.082;5.426;2023-06-22T08:47:42;11.20;;;8.75;;
67889;SDS011;54685;52.082;5.426;2023-06-22T08:50:10;13.27;;;8.23;;
67889;SDS011;54685;52.082;5.426;2023-06-22T08:52:37;10.68;;;8.35;;
67889;SDS011;54685;52.082;5.426;2023-06-22T08:55:08;11.90;;;7.30;;
67889;SDS011;54685;52.082;5.426;2023-06-22T08:57:39;9.13;;;8.20;;
67889;SDS011;54685;52.082;5.426;2023-06-22T09:00:10;8.75;;;7.47;;
67889;SDS011;54685;52.082;5.426;2023-06-22T09:02:43;13.57;;;8.15;;
67889;SDS011;54685;52.082;5.426;2023-06-22T09:05:11;8.52;;;7.57;;
67889;SDS011;54685;52.082;5.426;2023-06-22T09:07:38;10.27;;;8.27;;
67889;SDS011;54685;52.082;5.426;2023-06-22T09:10:06;8.82;;;7.03;;
67889;SDS011;54685;52.082;5.426;2023-06-22T09:12:33;10.18;;;7.47;;
67889;SDS011;54685;52.082;5.426;2023-06-22T09:15:00;9.48;;;7.93;;
67889;SDS011;54685;52.082;5.426;2023-06-22T09:17:29;8.13;;;7.10;;
67889;SDS011;54685;52.082;5.426;2023-06-22T09:19:56;10.27;;;7.70;;
67889;SDS011;54685;52.082;5.426;2023-06-22T09:22:23;8.75;;;7.03;;
67889;SDS011;54685;52.082;5.426;2023-06-22T09:24:55;7.53;;;5.95;;
67889;SDS011;54685;52.082;5.426;2023-06-22T09:27:22;11.10;;;6.45;;
67889;SDS011;54685;52.082;5.426;2023-06-22T09:29:49;9.85;;;5.45;;
67889;SDS011;54685;52.082;5.426;2023-06-22T09:32:17;8.73;;;5.97;;
67889;SDS011;54685;52.082;5.426;2023-06-22T09:34:44;7.32;;;5.05;;
67889;SDS011;54685;52.082;5.426;2023-06-22T09:37:11;12.57;;;5.78;;
67889;SDS011;54685;52.082;5.426;2023-06-22T09:39:38;7.18;;;5.57;;
67889;SDS011;54685;52.082;5.426;2023-06-22T09:42:07;8.13;;;5.82;;
67889;SDS011;54685;52.082;5.426;2023-06-22T09:44:35;8.00;;;5.30;;
67889;SDS011;54685;52.082;5.426;2023-06-22T09:47:02;14.85;;;5.50;;
67889;SDS011;54685;52.082;5.426;2023-06-22T09:49:29;9.20;;;5.13;;
67889;SDS011;54685;52.082;5.426;2023-06-22T09:52:03;8.52;;;5.30;;
67889;SDS011;54685;52.082;5.426;2023-06-22T09:54:30;10.57;;;5.68;;
67889;SDS011;54685;52.082;5.426;2023-06-22T09:56:57;8.52;;;5.68;;
67889;SDS011;54685;52.082;5.426;2023-06-22T09:59:27;12.98;;;5.88;;
67889;SDS011;54685;52.082;5.426;2023-06-22T10:01:54;10.68;;;5.50;;
67889;SDS011;54685;52.082;5.426;2023-06-22T10:04:21;7.28;;;5.80;;
67889;SDS011;54685;52.082;5.426;2023-06-22T10:06:48;9.25;;;5.30;;
67889;SDS011;54685;52.082;5.426;2023-06-22T10:09:15;14.13;;;5.47;;
67889;SDS011;54685;52.082;5.426;2023-06-22T10:11:42;9.20;;;5.95;;
67889;SDS011;54685;52.082;5.426;2023-06-22T10:14:09;8.82;;;5.32;;
67889;SDS011;54685;52.082;5.426;2023-06-22T10:16:36;8.85;;;5.63;;
67889;SDS011;54685;52.082;5.426;2023-06-22T10:19:03;9.32;;;5.45;;
67889;SDS011;54685;52.082;5.426;2023-06-22T10:21:30;11.07;;;5.10;;
67889;SDS011;54685;52.082;5.426;2023-06-22T10:23:58;8.80;;;4.40;;
67889;SDS011;54685;52.082;5.426;2023-06-22T10:26:30;8.25;;;4.72;;
67889;SDS011;54685;52.082;5.426;2023-06-22T10:29:01;6.95;;;4.82;;
67889;SDS011;54685;52.082;5.426;2023-06-22T10:34:09;9.52;;;4.25;;
67889;SDS011;54685;52.082;5.426;2023-06-22T10:36:36;9.48;;;4.43;;
67889;SDS011;54685;52.082;5.426;2023-06-22T10:39:04;6.07;;;4.60;;
67889;SDS011;54685;52.082;5.426;2023-06-22T10:41:32;5.95;;;4.53;;
67889;SDS011;54685;52.082;5.426;2023-06-22T10:43:59;6.43;;;4.50;;
67889;SDS011;54685;52.082;5.426;2023-06-22T10:46:26;6.43;;;4.32;;
67889;SDS011;54685;52.082;5.426;2023-06-22T10:48:54;9.52;;;5.10;;
67889;SDS011;54685;52.082;5.426;2023-06-22T10:51:23;6.75;;;5.00;;
67889;SDS011;54685;52.082;5.426;2023-06-22T10:53:50;11.77;;;5.70;;
67889;SDS011;54685;52.082;5.426;2023-06-22T10:56:17;10.63;;;6.22;;
67889;SDS011;54685;52.082;5.426;2023-06-22T10:58:45;16.48;;;5.97;;
67889;SDS011;54685;52.082;5.426;2023-06-22T11:01:13;12.70;;;6.18;;
67889;SDS011;54685;52.082;5.426;2023-06-22T11:06:35;16.23;;;6.15;;
67889;SDS011;54685;52.082;5.426;2023-06-22T11:09:06;6.20;;;5.38;;
67889;SDS011;54685;52.082;5.426;2023-06-22T11:11:37;9.05;;;5.95;;
67889;SDS011;54685;52.082;5.426;2023-06-22T11:14:04;7.10;;;5.75;;
67889;SDS011;54685;52.082;5.426;2023-06-22T11:16:31;9.00;;;5.40;;
67889;SDS011;54685;52.082;5.426;2023-06-22T11:18:58;8.65;;;6.20;;
67889;SDS011;54685;52.082;5.426;2023-06-22T11:21:25;7.47;;;5.18;;
67889;SDS011;54685;52.082;5.426;2023-06-22T11:23:55;8.27;;;6.07;;
67889;SDS011;54685;52.082;5.426;2023-06-22T11:26:22;9.38;;;5.88;;
67889;SDS011;54685;52.082;5.426;2023-06-22T11:28:49;9.75;;;6.28;;
67889;SDS011;54685;52.082;5.426;2023-06-22T11:31:16;6.68;;;5.97;;
67889;SDS011;54685;52.082;5.426;2023-06-22T11:33:51;9.45;;;6.53;;
67889;SDS011;54685;52.082;5.426;2023-06-22T11:36:19;6.38;;;5.70;;
67889;SDS011;54685;52.082;5.426;2023-06-22T11:38:46;7.53;;;6.72;;
67889;SDS011;54685;52.082;5.426;2023-06-22T11:41:13;7.38;;;6.32;;
67889;SDS011;54685;52.082;5.426;2023-06-22T11:43:40;8.85;;;6.53;;
67889;SDS011;54685;52.082;5.426;2023-06-22T11:46:07;7.55;;;6.25;;
67889;SDS011;54685;52.082;5.426;2023-06-22T11:48:34;8.63;;;6.85;;
67889;SDS011;54685;52.082;5.426;2023-06-22T11:51:02;10.48;;;7.32;;
67889;SDS011;54685;52.082;5.426;2023-06-22T11:53:29;10.25;;;7.35;;
67889;SDS011;54685;52.082;5.426;2023-06-22T11:55:56;10.20;;;6.60;;
67889;SDS011;54685;52.082;5.426;2023-06-22T11:58:24;6.47;;;5.88;;
67889;SDS011;54685;52.082;5.426;2023-06-22T12:00:51;8.35;;;6.40;;
67889;SDS011;54685;52.082;5.426;2023-06-22T12:03:19;9.85;;;6.30;;
67889;SDS011;54685;52.082;5.426;2023-06-22T12:05:50;10.02;;;5.95;;
67889;SDS011;54685;52.082;5.426;2023-06-22T12:08:20;7.28;;;5.97;;
67889;SDS011;54685;52.082;5.426;2023-06-22T12:10:49;9.00;;;6.28;;
67889;SDS011;54685;52.082;5.426;2023-06-22T12:13:18;12.50;;;6.70;;
67889;SDS011;54685;52.082;5.426;2023-06-22T12:15:45;10.02;;;6.97;;
67889;SDS011;54685;52.082;5.426;2023-06-22T12:18:12;9.75;;;6.43;;
67889;SDS011;54685;52.082;5.426;2023-06-22T12:20:41;9.10;;;6.63;;
67889;SDS011;54685;52.082;5.426;2023-06-22T12:23:12;17.67;;;8.65;;
67889;SDS011;54685;52.082;5.426;2023-06-22T12:25:39;9.75;;;7.32;;
67889;SDS011;54685;52.082;5.426;2023-06-22T12:28:06;9.63;;;7.60;;
67889;SDS011;54685;52.082;5.426;2023-06-22T12:30:33;13.23;;;8.23;;
67889;SDS011;54685;52.082;5.426;2023-06-22T12:33:00;12.15;;;8.52;;
67889;SDS011;54685;52.082;5.426;2023-06-22T12:35:28;14.02;;;9.20;;
67889;SDS011;54685;52.082;5.426;2023-06-22T12:37:55;15.02;;;9.38;;
67889;SDS011;54685;52.082;5.426;2023-06-22T12:40:23;27.92;;;9.55;;
67889;SDS011;54685;52.082;5.426;2023-06-22T12:42:50;15.88;;;8.85;;
67889;SDS011;54685;52.082;5.426;2023-06-22T12:45:17;16.40;;;9.52;;
67889;SDS011;54685;52.082;5.426;2023-06-22T12:47:45;14.45;;;9.40;;
67889;SDS011;54685;52.082;5.426;2023-06-22T12:50:12;12.63;;;10.20;;
67889;SDS011;54685;52.082;5.426;2023-06-22T12:52:41;13.70;;;9.82;;
67889;SDS011;54685;52.082;5.426;2023-06-22T12:55:09;18.50;;;10.25;;
67889;SDS011;54685;52.082;5.426;2023-06-22T12:57:36;14.70;;;9.55;;
67889;SDS011;54685;52.082;5.426;2023-06-22T13:00:03;11.75;;;10.55;;
67889;SDS011;54685;52.082;5.426;2023-06-22T13:02:31;14.88;;;11.02;;
67889;SDS011;54685;52.082;5.426;2023-06-22T13:04:59;12.05;;;10.10;;
67889;SDS011;54685;52.082;5.426;2023-06-22T13:07:26;15.02;;;11.27;;
67889;SDS011;54685;52.082;5.426;2023-06-22T13:09:53;13.82;;;11.65;;
67889;SDS011;54685;52.082;5.426;2023-06-22T13:12:20;13.13;;;11.73;;
67889;SDS011;54685;52.082;5.426;2023-06-22T13:14:47;17.33;;;11.07;;
67889;SDS011;54685;52.082;5.426;2023-06-22T13:17:15;15.75;;;11.23;;
67889;SDS011;54685;52.082;5.426;2023-06-22T13:19:42;16.88;;;10.93;;
67889;SDS011;54685;52.082;5.426;2023-06-22T13:22:31;15.32;;;11.77;;
67889;SDS011;54685;52.082;5.426;2023-06-22T13:25:07;14.13;;;11.57;;
67889;SDS011;54685;52.082;5.426;2023-06-22T13:30:09;15.23;;;11.90;;
67889;SDS011;54685;52.082;5.426;2023-06-22T13:32:40;17.30;;;13.20;;
67889;SDS011;54685;52.082;5.426;2023-06-22T13:35:10;15.95;;;12.80;;
67889;SDS011;54685;52.082;5.426;2023-06-22T13:37:39;14.32;;;12.05;;
67889;SDS011;54685;52.082;5.426;2023-06-22T13:40:06;14.85;;;13.35;;
67889;SDS011;54685;52.082;5.426;2023-06-22T13:42:34;16.77;;;13.20;;
67889;SDS011;54685;52.082;5.426;2023-06-22T13:45:01;16.75;;;12.65;;
67889;SDS011;54685;52.082;5.426;2023-06-22T13:47:29;19.63;;;12.60;;
67889;SDS011;54685;52.082;5.426;2023-06-22T13:49:57;16.50;;;12.70;;
67889;SDS011;54685;52.082;5.426;2023-06-22T13:52:25;17.85;;;13.13;;
67889;SDS011;54685;52.082;5.426;2023-06-22T13:54:52;15.77;;;12.32;;
67889;SDS011;54685;52.082;5.426;2023-06-22T13:57:20;24.60;;;14.10;;
67889;SDS011;54685;52.082;5.426;2023-06-22T13:59:50;15.32;;;13.27;;
67889;SDS011;54685;52.082;5.426;2023-06-22T14:02:16;23.95;;;14.38;;
67889;SDS011;54685;52.082;5.426;2023-06-22T14:04:43;18.60;;;14.25;;
67889;SDS011;54685;52.082;5.426;2023-06-22T14:07:13;19.05;;;16.27;;
67889;SDS011;54685;52.082;5.426;2023-06-22T14:09:41;19.40;;;14.38;;
67889;SDS011;54685;52.082;5.426;2023-06-22T14:12:08;20.33;;;16.40;;
67889;SDS011;54685;52.082;5.426;2023-06-22T14:14:36;23.45;;;14.65;;
67889;SDS011;54685;52.082;5.426;2023-06-22T14:17:04;15.65;;;13.95;;
67889;SDS011;54685;52.082;5.426;2023-06-22T14:19:31;14.85;;;13.18;;
67889;SDS011;54685;52.082;5.426;2023-06-22T14:21:58;20.13;;;14.32;;
67889;SDS011;54685;52.082;5.426;2023-06-22T14:24:25;16.83;;;12.98;;
67889;SDS011;54685;52.082;5.426;2023-06-22T14:26:56;21.38;;;13.80;;
67889;SDS011;54685;52.082;5.426;2023-06-22T14:29:26;14.85;;;13.10;;
67889;SDS011;54685;52.082;5.426;2023-06-22T14:31:55;17.38;;;13.25;;
67889;SDS011;54685;52.082;5.426;2023-06-22T14:34:22;14.32;;;12.65;;
67889;SDS011;54685;52.082;5.426;2023-06-22T14:36:49;18.17;;;13.32;;
67889;SDS011;54685;52.082;5.426;2023-06-22T14:39:19;14.88;;;11.77;;
67889;SDS011;54685;52.082;5.426;2023-06-22T14:41:47;18.35;;;12.48;;
67889;SDS011;54685;52.082;5.426;2023-06-22T14:44:17;13.57;;;11.73;;
67889;SDS011;54685;52.082;5.426;2023-06-22T14:46:44;16.08;;;12.98;;
67889;SDS011;54685;52.082;5.426;2023-06-22T14:49:11;15.32;;;12.55;;
67889;SDS011;54685;52.082;5.426;2023-06-22T14:51:38;13.60;;;12.25;;
67889;SDS011;54685;52.082;5.426;2023-06-22T14:54:05;17.02;;;12.63;;
67889;SDS011;54685;52.082;5.426;2023-06-22T14:56:33;16.75;;;12.38;;
67889;SDS011;54685;52.082;5.426;2023-06-22T14:59:00;13.63;;;12.13;;